Time;durP1;ratioP1;P1;durP2;ratioP2;P2;SDS_P1;SDS_P2;PMS_P1;PMS_P2;Temp;Humidity;BMP_temperature;BMP_pressure;BME280_temperature;BME280_humidity;BME280_pressure;Samples;Min_cycle;Max_cycle;Signal;HPM_P1;HPM_P2
2022/01/28 00:02:46;;;;;;;22.33;11.02;;;;;;;-3.29;64.86;95906.00;5024639;28;20038;-75
2022/01/28 00:05:17;;;;;;;26.67;11.20;;;;;;;-3.25;65.63;95908.38;5027676;28;20029;-75
2022/01/28 00:07:42;;;;;;;19.90;10.70;;;;;;;-3.22;65.40;95904.75;5024935;28;20029;-76
2022/01/28 00:10:08;;;;;;;30.95;12.32;;;;;;;-3.21;64.73;95903.84;5027298;28;20029;-76
2022/01/28 00:12:37;;;;;;;27.15;11.68;;;;;;;-3.12;64.79;95908.59;5026942;28;20017;-76
2022/01/28 00:15:16;;;;;;;23.77;11.35;;;;;;;-3.11;64.48;95910.28;5025296;28;20036;-76
2022/01/28 00:39:09;;;;;;;48.83;20.17;;;;;;;-3.44;65.42;95877.00;5027364;28;20097;-77
2022/01/28 00:41:35;;;;;;;45.00;18.38;;;;;;;-3.50;65.46;95878.16;5025218;28;20030;-75
2022/01/28 00:44:00;;;;;;;40.70;18.33;;;;;;;-3.42;65.14;95887.44;5027214;28;20052;-74
2022/01/28 00:46:26;;;;;;;39.47;18.90;;;;;;;-3.53;65.54;95886.19;5023964;28;20522;-75
2022/01/28 00:48:51;;;;;;;47.65;17.67;;;;;;;-3.57;65.38;95887.28;5026780;28;20029;-74
2022/01/28 00:51:16;;;;;;;35.20;14.77;;;;;;;-3.61;65.40;95885.75;5026124;28;20049;-77
2022/01/28 00:53:42;;;;;;;33.00;14.98;;;;;;;-3.66;65.18;95867.59;5024801;28;20350;-75
2022/01/28 00:56:07;;;;;;;29.60;13.68;;;;;;;-3.68;65.30;95871.25;5025523;28;20026;-76
2022/01/28 00:58:33;;;;;;;37.90;15.98;;;;;;;-3.78;65.63;95876.97;5025402;28;20025;-76
2022/01/28 01:00:58;;;;;;;33.50;16.10;;;;;;;-3.82;65.12;95872.78;5025803;28;20029;-77
2022/01/28 01:03:24;;;;;;;32.65;13.88;;;;;;;-3.81;65.19;95871.88;5023953;28;20412;-75
2022/01/28 01:05:52;;;;;;;35.80;15.20;;;;;;;-3.87;65.71;95865.16;5027667;28;20017;-75
2022/01/28 01:08:17;;;;;;;45.40;15.57;;;;;;;-3.90;65.30;95865.31;5028389;28;20052;-75
2022/01/28 01:10:43;;;;;;;30.10;14.90;;;;;;;-4.00;65.55;95861.47;5030197;28;20419;-76
2022/01/28 01:13:08;;;;;;;31.52;14.85;;;;;;;-4.01;65.98;95849.28;5030349;28;20032;-75
2022/01/28 01:15:39;;;;;;;36.33;15.20;;;;;;;-4.02;66.37;95844.97;5028021;28;20033;-74
2022/01/28 01:18:24;;;;;;;30.15;14.95;;;;;;;-4.05;66.32;95839.88;5029793;28;20055;-76
2022/01/28 01:23:28;;;;;;;30.38;12.95;;;;;;;-3.94;66.33;95845.44;5029241;28;20030;-74
2022/01/28 01:28:32;;;;;;;38.00;17.80;;;;;;;-3.88;66.03;95832.03;5029678;28;20083;-75
2022/01/28 01:30:59;;;;;;;37.53;17.92;;;;;;;-3.92;65.61;95827.88;5028972;28;20156;-76
2022/01/28 01:33:26;;;;;;;43.53;19.73;;;;;;;-3.97;66.33;95830.69;5027756;28;20036;-76
2022/01/28 01:35:52;;;;;;;49.80;22.25;;;;;;;-3.98;66.38;95809.81;5029010;28;20425;-76
2022/01/28 01:38:17;;;;;;;50.78;19.83;;;;;;;-3.98;66.50;95812.44;5029002;28;20025;-76
2022/01/28 01:40:55;;;;;;;49.63;20.90;;;;;;;-3.99;66.67;95819.47;5029841;28;20021;-75
2022/01/28 01:43:52;;;;;;;43.78;18.83;;;;;;;-4.12;64.54;95814.00;5029706;28;20030;-76
2022/01/28 01:46:23;;;;;;;44.20;18.10;;;;;;;-4.26;62.48;95808.59;5027896;28;20560;-76
2022/01/28 01:54:16;;;;;;;45.75;19.10;;;;;;;-4.63;64.03;95813.88;5029327;28;20129;-75
2022/01/28 01:56:42;;;;;;;42.22;19.27;;;;;;;-4.68;64.82;95815.84;5011965;28;20025;-76
2022/01/28 01:59:08;;;;;;;39.85;17.10;;;;;;;-4.78;65.83;95812.81;5027327;28;20018;-75
2022/01/28 02:01:33;;;;;;;56.63;21.42;;;;;;;-4.65;66.29;95808.72;5028940;28;20041;-76
2022/01/28 02:03:58;;;;;;;64.60;24.13;;;;;;;-4.68;66.87;95801.00;5026713;28;20029;-75
2022/01/28 02:06:24;;;;;;;60.92;26.88;;;;;;;-4.76;66.86;95797.91;5029898;28;20022;-74
2022/01/28 02:08:49;;;;;;;67.38;26.23;;;;;;;-4.79;66.74;95792.81;5027107;28;20080;-75
2022/01/28 02:11:15;;;;;;;62.83;28.13;;;;;;;-4.88;67.27;95787.09;5011785;28;20530;-76
2022/01/28 02:13:41;;;;;;;61.25;28.23;;;;;;;-4.89;67.39;95787.19;5029391;28;20029;-75
2022/01/28 02:16:07;;;;;;;72.47;29.10;;;;;;;-4.87;67.03;95788.78;5011050;28;20025;-75
2022/01/28 02:18:32;;;;;;;72.65;27.00;;;;;;;-4.87;67.06;95783.56;5028175;28;20471;-76
2022/01/28 02:21:10;;;;;;;63.03;27.00;;;;;;;-4.88;66.83;95787.09;5027940;28;20350;-75
2022/01/28 02:23:36;;;;;;;65.40;27.67;;;;;;;-5.01;66.80;95788.59;5013902;28;20072;-75
2022/01/28 02:26:03;;;;;;;72.20;28.75;;;;;;;-5.09;67.38;95786.34;5026603;28;20040;-75
2022/01/28 02:28:31;;;;;;;64.57;26.05;;;;;;;-5.07;67.37;95783.66;5028007;28;20388;-75
2022/01/28 02:30:57;;;;;;;60.28;25.50;;;;;;;-5.08;67.65;95785.44;5027275;28;20083;-75
2022/01/28 02:33:25;;;;;;;56.20;25.52;;;;;;;-5.10;66.86;95789.88;5027165;28;20030;-75
2022/01/28 02:35:50;;;;;;;56.13;22.17;;;;;;;-5.16;65.62;95785.81;5029478;28;20159;-76
2022/01/28 02:38:17;;;;;;;50.08;21.42;;;;;;;-5.21;65.02;95782.56;5026177;28;20037;-76
2022/01/28 02:40:47;;;;;;;47.65;20.23;;;;;;;-5.28;64.71;95781.97;5028236;28;20030;-75
2022/01/28 02:45:48;;;;;;;51.55;21.10;;;;;;;-5.46;65.50;95786.28;5027707;28;20558;-74
2022/01/28 02:48:24;;;;;;;49.35;19.98;;;;;;;-5.51;65.39;95773.41;5026995;28;20091;-76
2022/01/28 02:53:26;;;;;;;44.45;19.70;;;;;;;-5.52;66.47;95760.41;5028783;28;20060;-75
2022/01/28 02:56:01;;;;;;;48.15;19.85;;;;;;;-5.53;66.28;95758.72;5027361;28;20033;-75
2022/01/28 02:58:27;;;;;;;40.47;19.60;;;;;;;-5.58;66.61;95762.38;5028768;28;20033;-74
2022/01/28 03:00:56;;;;;;;43.13;19.00;;;;;;;-5.54;67.64;95767.47;5027896;28;20029;-75
2022/01/28 03:03:25;;;;;;;48.30;20.98;;;;;;;-5.49;68.02;95758.53;5026718;28;20021;-75
2022/01/28 03:05:51;;;;;;;78.53;27.42;;;;;;;-5.38;67.73;95758.03;5027267;28;20476;-75
2022/01/28 03:08:17;;;;;;;130.63;37.85;;;;;;;-5.40;67.92;95756.41;5025812;28;20026;-75
2022/01/28 03:15:54;;;;;;;80.22;28.60;;;;;;;-5.60;67.18;95735.50;5027755;28;20036;-75
2022/01/28 03:18:28;;;;;;;78.07;29.65;;;;;;;-5.51;67.53;95741.19;5026349;28;20040;-75
2022/01/28 03:23:19;;;;;;;70.65;27.98;;;;;;;-5.51;67.00;95746.41;5028300;28;20068;-75
2022/01/28 03:25:46;;;;;;;78.05;27.48;;;;;;;-5.53;66.88;95748.28;5026915;28;20519;-75
2022/01/28 03:28:12;;;;;;;64.13;24.27;;;;;;;-5.51;66.05;95738.56;5027522;28;20060;-75
2022/01/28 03:30:37;;;;;;;59.70;23.17;;;;;;;-5.61;66.24;95722.50;5025897;28;20415;-75
2022/01/28 03:33:03;;;;;;;69.47;27.00;;;;;;;-5.62;66.75;95719.03;5028485;28;20037;-74
2022/01/28 03:35:30;;;;;;;64.70;27.27;;;;;;;-5.99;67.97;95728.50;5009730;28;20575;-76
2022/01/28 03:38:02;;;;;;;77.05;29.20;;;;;;;-5.85;68.63;95725.31;5026797;28;20061;-75
2022/01/28 03:40:36;;;;;;;68.13;26.02;;;;;;;-5.75;68.45;95720.50;5027861;28;20013;-75
2022/01/28 03:43:02;;;;;;;67.88;26.02;;;;;;;-5.72;67.53;95709.91;5027132;28;20033;-76
2022/01/28 03:45:28;;;;;;;62.30;24.52;;;;;;;-5.68;67.64;95710.63;5030211;28;20085;-76
2022/01/28 03:47:53;;;;;;;63.00;24.20;;;;;;;-5.67;67.72;95709.72;5029048;28;20029;-75
2022/01/28 03:50:19;;;;;;;62.80;26.15;;;;;;;-5.65;67.02;95710.47;5029946;28;20046;-74
2022/01/28 03:52:44;;;;;;;61.55;23.67;;;;;;;-5.63;67.08;95714.72;5027464;28;20048;-75
2022/01/28 03:55:10;;;;;;;64.78;24.88;;;;;;;-5.68;67.53;95716.69;5026076;28;20029;-75
2022/01/28 03:57:35;;;;;;;58.20;26.50;;;;;;;-5.77;67.06;95706.66;5009308;28;20052;-75
2022/01/28 04:00:01;;;;;;;66.00;26.73;;;;;;;-5.76;67.45;95705.75;5025428;28;20491;-75
2022/01/28 04:02:30;;;;;;;68.15;24.98;;;;;;;-5.76;67.95;95696.16;5027624;28;20025;-75
2022/01/28 04:13:03;;;;;;;55.33;24.02;;;;;;;-5.44;67.27;95685.09;5026469;28;20036;-76
2022/01/28 04:15:48;;;;;;;55.00;23.48;;;;;;;-5.45;67.01;95696.50;5025914;28;20033;-75
2022/01/28 04:18:13;;;;;;;59.08;23.42;;;;;;;-5.47;66.76;95708.78;5024716;28;20053;-76
2022/01/28 04:20:39;;;;;;;62.78;25.80;;;;;;;-5.51;65.24;95712.44;5027089;28;20026;-75
2022/01/28 04:23:04;;;;;;;58.05;24.02;;;;;;;-5.57;64.50;95705.75;5024801;28;20030;-75
2022/01/28 04:25:29;;;;;;;66.00;25.52;;;;;;;-5.63;65.03;95706.88;5026532;28;20021;-75
2022/01/28 04:27:55;;;;;;;66.13;26.35;;;;;;;-5.69;64.63;95704.53;5026910;28;20442;-75
2022/01/28 04:30:20;;;;;;;58.75;26.40;;;;;;;-5.83;63.30;95702.56;5026030;28;20080;-75
2022/01/28 04:32:48;;;;;;;67.53;25.92;;;;;;;-5.89;62.80;95705.44;5025672;28;20061;-76
2022/01/28 04:35:14;;;;;;;63.70;25.52;;;;;;;-5.99;62.86;95702.41;5025276;28;20397;-76
2022/01/28 04:40:13;;;;;;;67.72;25.48;;;;;;;-5.94;63.39;95705.66;5025615;28;20053;-78
2022/01/28 04:42:55;;;;;;;66.55;26.38;;;;;;;-6.18;64.56;95711.09;5025149;28;20129;-75
2022/01/28 04:50:28;;;;;;;56.55;23.65;;;;;;;-6.24;67.57;95719.19;5027157;28;20208;-75
2022/01/28 05:27:22;;;;;;;61.25;25.80;;;;;;;-6.17;66.71;95725.84;5025061;28;20506;-75
2022/01/28 05:29:48;;;;;;;56.65;25.98;;;;;;;-6.18;66.58;95729.38;5024916;28;20041;-74
2022/01/28 05:32:13;;;;;;;59.47;24.88;;;;;;;-6.16;66.24;95734.53;5025542;28;20032;-75
2022/01/28 05:34:39;;;;;;;67.72;27.73;;;;;;;-6.24;66.41;95720.03;5024664;28;20025;-75
2022/01/28 05:37:05;;;;;;;59.53;24.95;;;;;;;-6.21;66.13;95726.88;5024787;28;20062;-75
2022/01/28 05:39:30;;;;;;;57.33;26.42;;;;;;;-6.24;65.50;95734.88;5023969;28;20040;-74
2022/01/28 05:41:56;;;;;;;56.97;25.90;;;;;;;-6.23;65.94;95737.41;5026517;28;20439;-76
2022/01/28 05:44:22;;;;;;;59.35;26.25;;;;;;;-6.22;66.44;95733.00;5024677;28;20021;-76
2022/01/28 05:46:48;;;;;;;66.65;27.88;;;;;;;-6.18;66.49;95726.75;5026402;28;20040;-75
2022/01/28 05:49:14;;;;;;;66.28;28.13;;;;;;;-6.21;67.34;95724.28;5023697;28;20049;-76
2022/01/28 05:51:41;;;;;;;66.07;30.98;;;;;;;-6.23;66.90;95720.88;5024648;28;20042;-77
2022/01/28 05:54:07;;;;;;;64.05;28.88;;;;;;;-6.33;67.28;95729.13;5027822;28;20080;-76
2022/01/28 05:56:32;;;;;;;64.88;29.48;;;;;;;-6.34;67.79;95718.75;5027793;28;20022;-75
2022/01/28 05:58:58;;;;;;;64.43;28.50;;;;;;;-6.26;67.08;95731.47;5029974;28;20021;-75
2022/01/28 06:01:23;;;;;;;75.18;31.60;;;;;;;-6.27;65.66;95735.00;5027244;28;20082;-76
2022/01/28 06:03:49;;;;;;;60.42;30.67;;;;;;;-6.15;65.52;95744.03;5028291;28;20021;-75
2022/01/28 06:06:19;;;;;;;67.97;28.65;;;;;;;-6.14;64.85;95743.97;5026954;28;20037;-75
2022/01/28 06:08:48;;;;;;;64.03;27.92;;;;;;;-6.21;64.90;95746.00;5029649;28;20107;-75
2022/01/28 06:11:14;;;;;;;62.03;28.00;;;;;;;-6.19;64.38;95742.50;5027504;28;20427;-76
2022/01/28 06:13:40;;;;;;;71.18;28.83;;;;;;;-6.19;64.75;95753.78;5027636;28;20542;-75
2022/01/28 06:16:05;;;;;;;63.78;28.98;;;;;;;-6.17;64.83;95749.34;5027691;28;20420;-75
2022/01/28 06:18:30;;;;;;;68.65;28.00;;;;;;;-6.01;65.39;95756.50;5028326;28;20091;-76
2022/01/28 06:20:56;;;;;;;65.55;29.67;;;;;;;-5.85;64.30;95754.88;5029480;28;20091;-75
2022/01/28 06:23:21;;;;;;;68.40;30.10;;;;;;;-5.81;64.37;95758.22;5026219;28;20076;-77
2022/01/28 06:25:48;;;;;;;65.65;30.17;;;;;;;-5.67;63.94;95764.59;5029245;28;20097;-74
2022/01/28 06:28:13;;;;;;;71.35;30.80;;;;;;;-5.42;63.04;95753.00;5010092;28;20041;-76
2022/01/28 06:30:39;;;;;;;66.88;30.52;;;;;;;-5.36;63.34;95758.81;5027562;28;20492;-76
2022/01/28 06:33:04;;;;;;;74.40;30.73;;;;;;;-5.19;62.98;95764.16;5026822;28;20026;-76
2022/01/28 06:35:30;;;;;;;68.72;30.73;;;;;;;-5.07;63.36;95755.72;5028226;28;20022;-76
2022/01/28 06:37:55;;;;;;;70.15;30.23;;;;;;;-4.99;62.81;95758.84;5028838;28;20024;-76
2022/01/28 06:40:21;;;;;;;69.38;31.10;;;;;;;-4.82;62.69;95757.16;5026427;28;20036;-76
2022/01/28 06:42:46;;;;;;;71.03;32.33;;;;;;;-4.71;61.21;95759.28;5027925;28;20022;-74
2022/01/28 06:45:12;;;;;;;78.30;35.15;;;;;;;-4.72;61.72;95760.19;5025790;28;20044;-75
2022/01/28 06:47:37;;;;;;;84.25;37.35;;;;;;;-4.74;61.76;95762.03;5028868;28;20131;-77
2022/01/28 06:50:07;;;;;;;88.80;38.78;;;;;;;-4.57;61.14;95757.72;5026177;28;20113;-77
2022/01/28 06:52:33;;;;;;;80.85;35.33;;;;;;;-4.45;61.07;95770.25;5027103;28;20037;-76
2022/01/28 06:55:00;;;;;;;77.68;35.67;;;;;;;-4.21;60.71;95772.56;5027500;28;20428;-76
2022/01/28 06:57:26;;;;;;;92.55;39.03;;;;;;;-4.13;59.95;95770.41;5027050;28;20052;-76
2022/01/28 06:59:51;;;;;;;76.60;38.42;;;;;;;-3.98;59.49;95778.38;5028334;28;20472;-76
2022/01/28 07:02:17;;;;;;;95.05;43.15;;;;;;;-3.83;59.13;95781.97;5028078;28;20059;-76
2022/01/28 07:04:42;;;;;;;87.82;39.28;;;;;;;-3.77;58.76;95791.31;5030059;28;20408;-76
2022/01/28 07:07:08;;;;;;;85.95;37.35;;;;;;;-3.58;58.82;95795.59;5026359;28;20077;-76
2022/01/28 07:09:35;;;;;;;83.57;38.13;;;;;;;-3.29;57.61;95770.41;5031083;28;20459;-76
2022/01/28 07:12:00;;;;;;;84.82;37.20;;;;;;;-3.13;56.62;95769.59;5026768;28;20084;-76
2022/01/28 07:14:26;;;;;;;87.40;38.08;;;;;;;-3.08;57.05;95771.97;5026116;28;20025;-75
2022/01/28 07:16:51;;;;;;;76.80;38.13;;;;;;;-2.98;57.77;95778.38;5027368;28;20017;-76
2022/01/28 07:19:17;;;;;;;91.32;39.63;;;;;;;-2.84;57.51;95779.41;5025410;28;20029;-77
2022/01/28 07:21:42;;;;;;;81.35;38.28;;;;;;;-2.77;57.27;95776.34;5027255;28;20033;-76
2022/01/28 07:24:08;;;;;;;82.90;37.25;;;;;;;-2.73;57.09;95771.78;5026704;28;20036;-75
2022/01/28 07:26:33;;;;;;;86.85;39.28;;;;;;;-3.00;57.35;95782.88;5028358;28;20028;-76
2022/01/28 07:28:58;;;;;;;95.40;42.92;;;;;;;-2.63;57.40;95786.06;5027090;28;20017;-76
2022/01/28 07:31:24;;;;;;;78.93;38.20;;;;;;;-2.45;56.30;95783.31;5027804;28;20018;-76
2022/01/28 07:33:49;;;;;;;84.88;38.10;;;;;;;-2.38;57.02;95796.94;5027922;28;20025;-76
2022/01/28 07:36:15;;;;;;;85.60;40.70;;;;;;;-2.22;57.41;95790.84;5025811;28;20028;-76
2022/01/28 07:38:40;;;;;;;86.30;40.45;;;;;;;-2.01;56.87;95799.22;5028254;28;20021;-76
2022/01/28 07:41:06;;;;;;;83.70;40.08;;;;;;;-1.96;56.39;95799.81;5026669;28;20017;-75
2022/01/28 07:43:34;;;;;;;85.75;39.65;;;;;;;-1.73;56.25;95802.84;5026757;28;20029;-76
2022/01/28 07:45:59;;;;;;;84.10;39.67;;;;;;;-1.64;55.04;95799.66;5025468;28;20022;-76
2022/01/28 07:48:25;;;;;;;91.05;41.67;;;;;;;-1.42;54.73;95802.78;5027855;28;20036;-76
2022/01/28 07:50:50;;;;;;;92.70;42.20;;;;;;;-1.13;54.67;95810.69;5027115;28;20041;-76
2022/01/28 07:53:17;;;;;;;89.50;42.47;;;;;;;-0.90;54.11;95809.22;5025850;28;20022;-76
2022/01/28 07:55:43;;;;;;;78.07;37.88;;;;;;;-0.67;52.77;95816.59;5028342;28;20056;-76
2022/01/28 07:58:08;;;;;;;74.80;39.03;;;;;;;-0.61;53.02;95810.13;5025096;28;20571;-75
2022/01/28 08:00:34;;;;;;;75.22;38.15;;;;;;;-0.88;53.35;95811.75;5027454;28;20025;-76
2022/01/28 08:02:59;;;;;;;76.03;37.20;;;;;;;-0.97;54.02;95805.31;5026479;28;20025;-75
2022/01/28 08:05:25;;;;;;;88.03;40.28;;;;;;;-1.23;55.19;95806.91;5026098;28;20510;-76
2022/01/28 08:07:51;;;;;;;77.75;41.10;;;;;;;-1.01;55.16;95801.16;5025161;28;20034;-76
2022/01/28 08:10:17;;;;;;;88.72;44.83;;;;;;;-0.80;53.87;95796.31;5009433;28;20487;-77
2022/01/28 08:12:52;;;;;;;99.45;46.10;;;;;;;-0.85;54.58;95776.50;5008944;28;20030;-76
2022/01/28 08:15:18;;;;;;;100.38;48.30;;;;;;;-0.70;54.36;95770.25;5025364;28;20037;-75
2022/01/28 08:17:43;;;;;;;94.10;45.83;;;;;;;-0.67;54.73;95780.56;5025909;28;20029;-75
2022/01/28 08:20:09;;;;;;;94.18;43.75;;;;;;;-0.46;54.55;95782.75;5024594;28;20507;-75
2022/01/28 08:22:50;;;;;;;90.32;43.10;;;;;;;-0.18;54.18;95773.03;5027077;28;20037;-76
2022/01/28 08:25:16;;;;;;;93.90;42.95;;;;;;;0.09;53.44;95774.78;5026102;28;20679;-75
2022/01/28 08:27:43;;;;;;;100.82;45.10;;;;;;;0.30;53.52;95776.06;5026516;28;20046;-76
2022/01/28 08:30:10;;;;;;;93.07;42.00;;;;;;;0.42;53.12;95779.66;5025476;28;20485;-76
2022/01/28 08:32:35;;;;;;;83.43;38.63;;;;;;;0.54;52.82;95770.03;5025630;28;20044;-76
2022/01/28 08:35:00;;;;;;;77.28;39.97;;;;;;;0.85;52.25;95770.53;5027606;28;20017;-77
2022/01/28 08:37:26;;;;;;;77.63;37.13;;;;;;;0.70;52.24;95765.38;5025425;28;20442;-76
2022/01/28 08:39:53;;;;;;;65.13;30.85;;;;;;;0.64;52.55;95773.72;5025846;28;20537;-76
2022/01/28 08:42:18;;;;;;;51.25;26.30;;;;;;;0.63;52.93;95774.66;5025664;28;20472;-75
2022/01/28 08:44:43;;;;;;;76.72;33.65;;;;;;;0.67;54.48;95775.31;5008616;28;20550;-76
2022/01/28 08:47:09;;;;;;;69.72;34.97;;;;;;;0.61;54.44;95781.88;5026369;28;20080;-76
2022/01/28 08:49:34;;;;;;;92.32;43.55;;;;;;;0.88;54.53;95774.75;5025898;28;20033;-76
2022/01/28 08:52:00;;;;;;;96.80;47.03;;;;;;;1.13;53.80;95778.31;5026941;28;20038;-76
2022/01/28 08:54:26;;;;;;;87.88;44.03;;;;;;;1.37;54.34;95772.19;5024083;28;20036;-75
2022/01/28 08:56:51;;;;;;;84.95;44.88;;;;;;;1.54;52.75;95776.25;5025496;28;20021;-76
2022/01/28 08:59:17;;;;;;;82.30;41.80;;;;;;;1.64;52.47;95789.63;5024113;28;20021;-76
2022/01/28 09:01:42;;;;;;;99.70;52.15;;;;;;;1.84;52.04;95796.94;5025217;28;20049;-74
2022/01/28 09:04:07;;;;;;;78.95;40.38;;;;;;;2.04;51.66;95786.69;5025503;28;20025;-75
2022/01/28 09:06:34;;;;;;;76.22;36.95;;;;;;;1.92;51.78;95784.97;5024900;28;20037;-75
2022/01/28 09:09:01;;;;;;;67.38;34.47;;;;;;;1.80;51.86;95784.91;4992229;28;20025;-75
2022/01/28 09:13:52;;;;;;;65.28;30.40;;;;;;;1.64;52.62;95797.56;5025223;28;20484;-77
2022/01/28 09:16:18;;;;;;;51.42;28.95;;;;;;;1.64;51.91;95792.28;5023622;28;20041;-77
2022/01/28 09:18:44;;;;;;;60.47;28.83;;;;;;;1.52;52.55;95792.22;5025198;28;20025;-76
2022/01/28 09:21:09;;;;;;;54.65;25.63;;;;;;;1.56;51.95;95799.00;5024064;28;20025;-76
2022/01/28 09:23:34;;;;;;;47.67;23.17;;;;;;;1.51;52.64;95787.91;5025184;28;20033;-77
2022/01/28 09:26:01;;;;;;;41.30;22.50;;;;;;;1.50;52.53;95794.13;5025282;28;20045;-76
2022/01/28 09:28:26;;;;;;;44.88;23.17;;;;;;;1.52;52.94;95796.66;5028677;28;20088;-76
2022/01/28 09:30:52;;;;;;;45.95;22.77;;;;;;;1.55;52.05;95799.91;5034346;28;20021;-76
2022/01/28 09:33:18;;;;;;;51.05;23.77;;;;;;;1.54;53.16;95787.66;5034018;28;20515;-75
2022/01/28 09:35:43;;;;;;;51.17;25.58;;;;;;;1.48;51.55;95788.13;5034028;28;20104;-77
2022/01/28 09:38:09;;;;;;;53.40;27.13;;;;;;;1.42;52.33;95781.47;5033649;28;20026;-79
2022/01/28 09:40:35;;;;;;;45.67;24.77;;;;;;;1.39;52.27;95779.03;5013073;28;20413;-75
2022/01/28 09:43:02;;;;;;;47.72;24.48;;;;;;;1.30;52.88;95772.66;5011118;28;20030;-76
2022/01/28 09:45:28;;;;;;;43.50;21.75;;;;;;;1.32;53.12;95778.63;5028923;28;20033;-75
2022/01/28 09:47:56;;;;;;;63.95;25.33;;;;;;;1.29;53.00;95778.88;5028484;28;20369;-75
2022/01/28 09:50:22;;;;;;;68.97;30.08;;;;;;;1.40;52.68;95771.97;5028976;28;20071;-74
2022/01/28 09:52:51;;;;;;;67.85;31.30;;;;;;;1.34;52.88;95781.16;5030002;28;20045;-75
2022/01/28 09:55:18;;;;;;;68.18;30.70;;;;;;;1.33;52.94;95784.78;5027154;28;20199;-76
2022/01/28 09:57:45;;;;;;;64.30;30.05;;;;;;;1.31;53.50;95784.03;5029964;28;20029;-74
2022/01/28 10:00:11;;;;;;;67.50;30.92;;;;;;;1.38;54.37;95790.59;5027141;28;20032;-75
2022/01/28 10:03:10;;;;;;;69.20;32.22;;;;;;;1.50;54.92;95785.38;5029818;28;20034;-75
2022/01/28 10:05:42;;;;;;;82.78;35.28;;;;;;;1.44;54.34;95781.34;5028171;28;20068;-78
2022/01/28 10:08:12;;;;;;;70.80;32.67;;;;;;;1.46;54.17;95782.09;5027761;28;20040;-77
2022/01/28 10:10:53;;;;;;;78.70;33.92;;;;;;;1.54;54.06;95785.03;5029912;28;20031;-76
2022/01/28 10:13:53;;;;;;;65.55;30.88;;;;;;;1.60;54.89;95789.84;5027326;28;20030;-76
2022/01/28 10:16:23;;;;;;;65.38;30.85;;;;;;;1.60;55.14;95795.16;5027063;28;20442;-77
2022/01/28 10:18:59;;;;;;;54.65;29.05;;;;;;;1.62;54.76;95800.31;5028341;28;20025;-76
2022/01/28 10:21:28;;;;;;;51.05;26.55;;;;;;;1.63;54.64;95793.25;5026839;28;20381;-75
2022/01/28 10:24:04;;;;;;;55.25;27.10;;;;;;;1.60;54.81;95800.44;5029347;28;20040;-77
2022/01/28 10:26:32;;;;;;;48.50;26.17;;;;;;;1.62;54.72;95800.31;5027494;28;20036;-76
2022/01/28 10:28:58;;;;;;;58.13;27.10;;;;;;;1.65;55.22;95800.09;5027164;28;20496;-76
2022/01/28 10:31:36;;;;;;;47.47;24.30;;;;;;;1.70;55.26;95786.53;5029040;28;20653;-75
2022/01/28 10:34:26;;;;;;;48.33;25.83;;;;;;;1.64;54.48;95794.91;5028196;28;20029;-76
2022/01/28 10:37:12;;;;;;;49.28;24.30;;;;;;;1.67;53.68;95792.06;5029331;28;20091;-76
2022/01/28 10:39:52;;;;;;;43.08;22.80;;;;;;;1.73;53.57;95783.66;5027107;28;20044;-76
2022/01/28 10:42:40;;;;;;;46.40;21.98;;;;;;;1.72;53.98;95782.84;5026616;28;20056;-76
2022/01/28 10:45:11;;;;;;;47.03;22.52;;;;;;;1.76;53.16;95783.44;5027871;28;20427;-75
2022/01/28 10:47:44;;;;;;;45.30;23.17;;;;;;;1.81;54.42;95783.94;5026456;28;20021;-77
2022/01/28 10:50:28;;;;;;;;;;;;;;;1.83;54.20;95783.81;5028855;28;20061;-75
2022/01/28 10:53:10;;;;;;;43.35;21.10;;;;;;;1.87;54.52;95779.16;5028686;28;20289;-75
2022/01/28 10:55:46;;;;;;;50.20;22.48;;;;;;;1.90;54.26;95786.88;5027194;28;20025;-76
2022/01/28 10:58:14;;;;;;;42.80;22.23;;;;;;;1.97;53.90;95786.28;5027321;28;20476;-76
2022/01/28 11:00:46;;;;;;;59.60;25.35;;;;;;;1.97;53.44;95778.34;5026127;28;20049;-76
2022/01/28 11:03:13;;;;;;;81.90;35.42;;;;;;;2.02;53.57;95780.66;5026979;28;20057;-76
2022/01/28 11:05:39;;;;;;;72.95;31.92;;;;;;;2.09;53.50;95767.81;5026847;28;20030;-76
2022/01/28 11:08:06;;;;;;;53.92;26.27;;;;;;;2.16;53.28;95770.84;5025998;28;20067;-74
2022/01/28 11:10:32;;;;;;;45.80;21.20;;;;;;;2.22;54.03;95767.72;5027396;28;20029;-75
2022/01/28 11:12:58;;;;;;;45.72;18.75;;;;;;;2.38;53.95;95782.44;5025777;28;20661;-76
2022/01/28 11:15:23;;;;;;;35.40;17.65;;;;;;;2.43;54.51;95762.59;5026800;28;20025;-75
2022/01/28 11:17:49;;;;;;;27.88;16.63;;;;;;;2.51;54.85;95747.91;5026712;28;20105;-78
2022/01/28 11:20:19;;;;;;;25.98;15.15;;;;;;;2.63;55.33;95744.28;5010352;28;20033;-76
2022/01/28 11:23:13;;;;;;;28.13;14.55;;;;;;;2.75;56.01;95750.44;5026527;28;20091;-75
2022/01/28 11:26:07;;;;;;;14.18;5.80;;;;;;;2.92;55.83;95735.00;5025774;28;20036;-75
2022/01/28 11:28:44;;;;;;;8.32;5.25;;;;;;;2.94;55.77;95719.84;5026963;28;20032;-78
2022/01/28 11:31:10;;;;;;;10.13;5.20;;;;;;;3.02;56.06;95735.13;5025658;28;20466;-76
2022/01/28 11:33:49;;;;;;;11.00;5.60;;;;;;;3.08;55.88;95742.56;5009999;28;20108;-76
2022/01/28 11:36:41;;;;;;;12.35;5.07;;;;;;;3.05;56.33;95741.03;5026362;28;20424;-75
2022/01/28 11:39:36;;;;;;;10.00;5.38;;;;;;;3.12;56.02;95736.09;5026176;28;20041;-75
2022/01/28 11:42:10;;;;;;;7.60;4.78;;;;;;;3.20;56.33;95735.47;5026669;28;20025;-75
2022/01/28 11:44:51;;;;;;;9.63;5.18;;;;;;;3.20;56.20;95736.31;4993518;28;20487;-75
2022/01/28 11:47:24;;;;;;;7.95;4.68;;;;;;;3.23;55.99;95729.91;5026202;28;20036;-75
2022/01/28 11:50:05;;;;;;;;;;;;;;;3.31;56.63;95734.59;5026337;28;20038;-76
2022/01/28 11:53:04;;;;;;;10.90;5.30;;;;;;;3.26;57.16;95727.00;5026171;28;20000;-76
2022/01/28 11:55:31;;;;;;;10.27;5.43;;;;;;;3.29;56.11;95721.47;5013950;28;20071;-75
2022/01/28 11:57:57;;;;;;;9.40;4.90;;;;;;;3.37;56.00;95720.00;5027642;28;20520;-77
2022/01/28 12:00:23;;;;;;;9.88;4.70;;;;;;;3.43;56.26;95715.03;5024678;28;20447;-76
2022/01/28 12:02:52;;;;;;;11.15;5.18;;;;;;;3.46;55.10;95712.16;5009880;28;20060;-77
2022/01/28 12:05:25;;;;;;;11.10;4.88;;;;;;;3.39;55.09;95713.59;5024738;28;20036;-75
2022/01/28 12:07:50;;;;;;;7.97;4.70;;;;;;;3.37;55.14;95704.91;5027311;28;20064;-76
2022/01/28 12:10:15;;;;;;;10.05;5.32;;;;;;;3.43;55.70;95708.91;5009035;28;20074;-78
2022/01/28 12:12:42;;;;;;;10.60;5.28;;;;;;;3.47;55.81;95707.66;5008920;28;20036;-76
2022/01/28 12:15:12;;;;;;;7.18;4.63;;;;;;;3.54;55.78;95713.31;5027186;28;20033;-74
2022/01/28 12:17:48;;;;;;;8.27;5.25;;;;;;;3.37;56.76;95709.41;5025656;28;20836;-76
2022/01/28 12:20:13;;;;;;;10.30;5.60;;;;;;;3.52;56.62;95717.88;5026351;28;20029;-76
2022/01/28 12:23:10;;;;;;;9.35;4.78;;;;;;;3.62;55.94;95712.66;5025543;28;20029;-75
2022/01/28 12:25:35;;;;;;;8.45;5.70;;;;;;;3.56;56.28;95714.03;5024714;28;20045;-75
2022/01/28 12:28:14;;;;;;;11.93;5.13;;;;;;;3.58;56.07;95698.81;5026922;28;20029;-76
2022/01/28 12:30:40;;;;;;;8.75;5.15;;;;;;;3.57;55.96;95690.03;5024013;28;20045;-75
2022/01/28 12:33:06;;;;;;;12.07;5.25;;;;;;;3.53;56.34;95701.03;5025966;28;20094;-75
2022/01/28 12:35:31;;;;;;;8.82;5.35;;;;;;;3.48;56.22;95704.06;4991220;28;20021;-76
2022/01/28 12:38:02;;;;;;;10.63;5.00;;;;;;;3.46;56.71;95712.16;5025591;28;20025;-76
2022/01/28 12:40:34;;;;;;;9.05;4.93;;;;;;;3.49;56.37;95707.53;5024777;28;20057;-77
2022/01/28 12:43:00;;;;;;;11.15;5.32;;;;;;;3.51;56.54;95708.25;5024989;28;20029;-75
2022/01/28 12:45:26;;;;;;;12.35;6.22;;;;;;;3.59;56.13;95704.00;5026647;28;20040;-75
2022/01/28 12:47:51;;;;;;;11.45;5.90;;;;;;;3.69;56.40;95703.25;5025056;28;20343;-77
2022/01/28 12:50:17;;;;;;;9.95;6.05;;;;;;;3.71;55.97;95690.69;5025641;28;20040;-76
2022/01/28 12:52:45;;;;;;;11.50;6.18;;;;;;;3.78;55.87;95696.31;5024886;28;20052;-76
2022/01/28 12:55:10;;;;;;;14.05;6.78;;;;;;;3.85;56.02;95707.28;5009080;28;20032;-75
2022/01/28 12:57:43;;;;;;;10.50;6.38;;;;;;;3.91;55.80;95712.06;5024210;28;20030;-75
2022/01/28 13:00:09;;;;;;;13.85;6.90;;;;;;;3.91;56.49;95709.41;5009036;28;20055;-75
2022/01/28 13:02:35;;;;;;;11.10;6.50;;;;;;;3.91;57.56;95704.94;5024515;28;20030;-77
2022/01/28 13:10:24;;;;;;;13.05;6.00;;;;;;;3.57;59.71;95708.59;5011970;28;20124;-76
2022/01/28 13:12:51;;;;;;;10.80;6.55;;;;;;;3.52;60.56;95712.59;5024777;28;20033;-76